Weather History for KMGN - August, 2013

Change the Weather History Date:

Sunday, August 11, 2013

  Actual Average (KPLN) Record (KPLN)
Temperature  
Mean Temperature 64 °F -  
Max Temperature 75 °F 75 °F 90 °F (1976)
Min Temperature 54 °F 49 °F 34 °F (1967)
Growing Degree Days 14 (Base 50)    
Moisture  
Dew Point 57 °F    
Average Humidity 78    
Maximum Humidity 94    
Minimum Humidity 51    
Precipitation  
Precipitation 0.00 in - - ()
Sea Level Pressure  
Sea Level Pressure 30.07 in    
Wind  
Wind Speed 2 mph (WSW)    
Max Wind Speed 9 mph    
Max Gust Speed 16 mph    
Visibility 10 miles    
Events      
Averages and records for this station are not official NWS values.
T = Trace of Precipitation, MM = Missing Value Source: NWS Daily Summary

Daily Weather History Graph

Daily Weather History Graph

Search for Another Location

Airport or City:

Trip Planner

Search our weather history database for the weather conditions in past years. The results will help you decide how hot, cold, wet, or windy it might be!

Date:

Astronomy

Aug. 11, 2013 Rise Set
Actual Time 6:35 AM EDT 8:52 PM EDT
Civil Twilight 6:03 AM EDT 9:25 PM EDT
Nautical Twilight 5:22 AM EDT 10:05 PM EDT
Astronomical Twilight 4:36 AM EDT 10:51 PM EDT
Moon 11:40 AM EDT (8/11) 10:49 PM EDT (8/11)
Length of Visible Light 15h 22m
Length of Day
14h 16m
Waxing Crescent, 22% of the Moon is Illuminated
Aug 11
Waxing Crescent
Aug 14
First Quarter
Aug 20
Full
Aug 28
Last Quarter
Sep 5
New

Hourly Weather History & Observations

Time (EDT) Temp. Dew Point Humidity Pressure Visibility Wind Dir Wind Speed Gust Speed Precip Events Conditions
12:15 AM 56.7 °F 53.1 °F 88% 30.11 in 10.0 mi Calm Calm - N/A   Clear
12:35 AM 54.9 °F 52.3 °F 91% 30.11 in 10.0 mi Calm Calm - N/A   Clear
12:54 AM 54.9 °F 52.2 °F 91% 30.11 in 10.0 mi Calm Calm - N/A   Clear
1:15 AM 54.9 °F 52.5 °F 92% 30.11 in 10.0 mi Calm Calm - N/A   Clear
1:35 AM 54.9 °F 52.7 °F 92% 30.11 in 10.0 mi Calm Calm - N/A   Clear
1:54 AM 54.9 °F 53.1 °F 94% 30.11 in 10.0 mi Calm Calm - N/A   Clear
2:15 AM 54.9 °F 52.9 °F 93% 30.11 in 10.0 mi Calm Calm - N/A   Clear
2:34 AM 54.9 °F 53.1 °F 94% 30.11 in 10.0 mi Calm Calm - N/A   Clear
2:55 AM 54.9 °F 53.1 °F 94% 30.11 in 10.0 mi Calm Calm - N/A   Clear
3:15 AM 54.9 °F 52.7 °F 92% 30.10 in 10.0 mi Calm Calm - N/A   Clear
3:34 AM 54.9 °F 52.9 °F 93% 30.10 in 10.0 mi Calm Calm - N/A   Clear
3:55 AM 54.9 °F 52.9 °F 93% 30.09 in 10.0 mi Calm Calm - N/A   Clear
4:15 AM 54.9 °F 52.3 °F 91% 30.09 in 10.0 mi Calm Calm - N/A   Clear
4:34 AM 54.9 °F 52.3 °F 91% 30.09 in 10.0 mi Calm Calm - N/A   Clear
4:55 AM 54.9 °F 52.7 °F 92% 30.09 in 10.0 mi Calm Calm - N/A   Clear
5:15 AM 54.9 °F 52.9 °F 93% 30.09 in 10.0 mi Calm Calm - N/A   Clear
5:34 AM 54.9 °F 53.1 °F 94% 30.09 in 10.0 mi Calm Calm - N/A   Scattered Clouds
5:55 AM 54.9 °F 52.7 °F 92% 30.09 in 10.0 mi Calm Calm - N/A   Mostly Cloudy
6:15 AM 54.9 °F 52.3 °F 91% 30.09 in 10.0 mi Calm Calm - N/A   Scattered Clouds
6:34 AM 54.9 °F 52.2 °F 91% 30.09 in 10.0 mi Calm Calm - N/A   Scattered Clouds
6:55 AM 54.9 °F 53.1 °F 94% 30.10 in 10.0 mi Calm Calm - N/A   Scattered Clouds
7:15 AM 57.2 °F 54.7 °F 91% 30.10 in 10.0 mi Calm Calm - N/A   Overcast
7:34 AM 57.9 °F 55.8 °F 92% 30.10 in 10.0 mi Calm Calm - N/A   Overcast
7:55 AM 61.2 °F 57.0 °F 86% 30.09 in 10.0 mi Calm Calm - N/A   Overcast
8:15 AM 62.6 °F 57.4 °F 83% 30.09 in 10.0 mi Calm Calm - N/A   Overcast
8:35 AM 63.3 °F 58.5 °F 84% 30.09 in 10.0 mi Calm Calm - N/A   Mostly Cloudy
8:55 AM 64.9 °F 60.1 °F 84% 30.09 in 10.0 mi SW 4.6 mph - N/A   Scattered Clouds
9:15 AM 64.9 °F 59.7 °F 83% 30.09 in 10.0 mi SSW 4.6 mph - N/A   Scattered Clouds
9:35 AM 66.7 °F 61.3 °F 83% 30.10 in 10.0 mi SW 3.5 mph - N/A   Mostly Cloudy
9:55 AM 66.9 °F 61.7 °F 83% 30.10 in 10.0 mi SW 4.6 mph - N/A   Overcast
10:14 AM 66.0 °F 61.0 °F 84% 30.10 in 10.0 mi SW 3.5 mph - N/A   Overcast
10:35 AM 70.0 °F 64.6 °F 83% 30.10 in 10.0 mi SW 4.6 mph - N/A   Mostly Cloudy
10:55 AM 70.0 °F 64.0 °F 81% 30.09 in 10.0 mi SW 8.1 mph - N/A   Scattered Clouds
11:14 AM 70.3 °F 62.6 °F 76% 30.09 in 10.0 mi SW 8.1 mph - N/A   Clear
11:35 AM 70.2 °F 62.2 °F 76% 30.08 in 10.0 mi SW 8.1 mph - N/A   Clear
11:55 AM 70.0 °F 60.3 °F 71% 30.08 in 10.0 mi SW 6.9 mph - N/A   Clear
12:14 PM 71.1 °F 60.6 °F 69% 30.08 in 10.0 mi SW 8.1 mph - N/A   Clear
12:35 PM 72.3 °F 60.3 °F 66% 30.08 in 10.0 mi SW 6.9 mph - N/A   Clear
12:55 PM 72.0 °F 60.4 °F 67% 30.09 in 10.0 mi WSW 6.9 mph - N/A   Clear
1:14 PM 72.0 °F 58.8 °F 63% 30.09 in 10.0 mi WSW 8.1 mph - N/A   Clear
1:35 PM 71.4 °F 57.7 °F 62% 30.08 in 10.0 mi WSW 4.6 mph - N/A   Clear
1:54 PM 70.2 °F 59.2 °F 68% 30.08 in 10.0 mi WSW 6.9 mph - N/A   Clear
2:15 PM 70.0 °F 59.2 °F 68% 30.09 in 10.0 mi WSW 6.9 mph - N/A   Clear
2:35 PM 70.0 °F 58.3 °F 66% 30.08 in 10.0 mi WSW 5.8 mph - N/A   Clear
2:54 PM 70.9 °F 60.1 °F 69% 30.08 in 10.0 mi WSW 6.9 mph - N/A   Clear
3:15 PM 70.7 °F 59.0 °F 66% 30.08 in 10.0 mi WSW 5.8 mph - N/A   Clear
3:35 PM 70.0 °F 59.5 °F 69% 30.07 in 10.0 mi WSW 5.8 mph - N/A   Clear
3:54 PM 72.0 °F 57.9 °F 61% 30.06 in 10.0 mi WSW 5.8 mph - N/A   Clear
4:15 PM 72.5 °F 55.6 °F 55% 30.06 in 10.0 mi WSW 4.6 mph - N/A   Clear
4:35 PM 75.0 °F 55.8 °F 51% 30.05 in 10.0 mi WSW 4.6 mph - N/A   Clear
4:54 PM 73.8 °F 55.6 °F 53% 30.04 in 10.0 mi West 5.8 mph - N/A   Clear
5:15 PM 75.2 °F 56.5 °F 52% 30.04 in 10.0 mi West 5.8 mph - N/A   Clear
5:35 PM 75.2 °F 56.7 °F 52% 30.04 in 10.0 mi West 5.8 mph - N/A   Clear
5:54 PM 75.2 °F 57.2 °F 53% 30.04 in 10.0 mi West 4.6 mph - N/A   Clear
6:15 PM 75.2 °F 56.8 °F 53% 30.04 in 10.0 mi WNW 8.1 mph 16.1 mph N/A   Clear
6:35 PM 73.2 °F 58.1 °F 59% 30.03 in 10.0 mi West 9.2 mph - N/A   Clear
6:54 PM 72.5 °F 56.7 °F 57% 30.03 in 10.0 mi West 5.8 mph - N/A   Clear
7:15 PM 71.4 °F 57.7 °F 62% 30.03 in 10.0 mi West 4.6 mph - N/A   Clear
7:35 PM 70.0 °F 58.1 °F 66% 30.03 in 10.0 mi West 6.9 mph - N/A   Clear
7:54 PM 70.0 °F 58.3 °F 66% 30.03 in 10.0 mi West 6.9 mph - N/A   Clear
8:15 PM 70.0 °F 59.2 °F 68% 30.03 in 10.0 mi West 4.6 mph - N/A   Clear
8:35 PM 69.6 °F 61.5 °F 75% 30.02 in 10.0 mi West 4.6 mph - N/A   Clear
8:54 PM 67.5 °F 61.2 °F 80% 30.03 in 10.0 mi West 5.8 mph - N/A   Clear
9:15 PM 67.5 °F 62.1 °F 83% 30.03 in 10.0 mi West 4.6 mph - N/A   Clear
9:35 PM 66.7 °F 61.7 °F 84% 30.03 in 10.0 mi West 4.6 mph - N/A   Clear
9:54 PM 65.7 °F 60.8 °F 84% 30.04 in 10.0 mi West 4.6 mph - N/A   Clear
10:15 PM 67.5 °F 61.5 °F 81% 30.04 in 10.0 mi WSW 4.6 mph - N/A   Clear
10:34 PM 67.5 °F 61.5 °F 81% 30.03 in 10.0 mi WSW 3.5 mph - N/A   Scattered Clouds
10:54 PM 65.3 °F 60.1 °F 83% 30.04 in 10.0 mi Calm Calm - N/A   Scattered Clouds
11:15 PM 64.2 °F 59.7 °F 85% 30.03 in 10.0 mi Calm Calm - N/A   Scattered Clouds
11:34 PM 63.5 °F 59.7 °F 87% 30.03 in 10.0 mi Calm Calm - N/A   Clear
11:54 PM 63.7 °F 60.3 °F 89% 30.04 in 10.0 mi SW 4.6 mph - N/A   Clear